Time;durP1;ratioP1;P1;durP2;ratioP2;P2;SDS_P1;SDS_P2;PMS_P1;PMS_P2;Temp;Humidity;BMP_temperature;BMP_pressure;BME280_temperature;BME280_humidity;BME280_pressure;Samples;Min_cycle;Max_cycle;Signal;HPM_P1;HPM_P2
2022/06/28 00:00:48;;;;;;;1.87;1.27;;;;;;;;;;5060587;28;20433;-68
2022/06/28 00:03:15;;;;;;;1.97;1.47;;;;;;;;;;5065539;28;20619;-68
2022/06/28 00:05:48;;;;;;;1.63;1.30;;;;;;;;;;5061045;28;20189;-67
2022/06/28 00:08:15;;;;;;;2.40;1.40;;;;;;;;;;5065091;28;20193;-67
2022/06/28 00:10:42;;;;;;;2.57;1.60;;;;;;;;;;5042871;28;20682;-68
2022/06/28 00:13:09;;;;;;;3.67;1.23;;;;;;;;;;5064918;28;20193;-68
2022/06/28 00:18:23;;;;;;;3.93;1.30;;;;;;;;;;5064227;28;20193;-68
2022/06/28 00:20:50;;;;;;;1.60;1.20;;;;;;;;;;5065861;28;20181;-67
2022/06/28 00:23:18;;;;;;;1.47;1.33;;;;;;;;;;5044400;28;20221;-67
2022/06/28 00:25:45;;;;;;;2.90;1.33;;;;;;;;;;5065519;28;20197;-67
2022/06/28 00:28:12;;;;;;;2.03;1.40;;;;;;;;;;5065665;28;20635;-67
2022/06/28 00:30:39;;;;;;;1.37;1.10;;;;;;;;;;5063954;28;20225;-67
2022/06/28 00:33:07;;;;;;;2.73;1.30;;;;;;;;;;5066085;28;20189;-67
2022/06/28 00:35:34;;;;;;;2.83;1.33;;;;;;;;;;5062419;28;20209;-67
2022/06/28 00:38:01;;;;;;;2.67;1.20;;;;;;;;;;5059913;28;20220;-68
2022/06/28 00:40:29;;;;;;;1.73;1.10;;;;;;;;;;5061858;28;20206;-68
2022/06/28 00:42:56;;;;;;;1.97;1.10;;;;;;;;;;5066330;28;20205;-67
2022/06/28 00:45:23;;;;;;;2.87;1.10;;;;;;;;;;5062570;28;20575;-68
2022/06/28 00:47:50;;;;;;;1.40;1.10;;;;;;;;;;5059623;28;20240;-68
2022/06/28 00:50:18;;;;;;;1.43;1.20;;;;;;;;;;5066077;28;20217;-68
2022/06/28 00:53:02;;;;;;;2.63;1.30;;;;;;;;;;5062998;28;20197;-68
2022/06/28 00:55:30;;;;;;;1.37;1.10;;;;;;;;;;5064295;28;20752;-68
2022/06/28 00:57:57;;;;;;;2.33;1.33;;;;;;;;;;5064191;28;20268;-68
2022/06/28 01:00:24;;;;;;;2.80;1.13;;;;;;;;;;5060724;28;20213;-67
2022/06/28 01:02:51;;;;;;;2.00;1.30;;;;;;;;;;5064808;28;20185;-67
2022/06/28 01:05:19;;;;;;;1.30;1.20;;;;;;;;;;5048188;28;20524;-67
2022/06/28 01:07:47;;;;;;;3.00;1.37;;;;;;;;;;5060521;28;20201;-67
2022/06/28 01:10:14;;;;;;;1.30;1.20;;;;;;;;;;5064653;28;20214;-67
2022/06/28 01:12:41;;;;;;;1.60;1.20;;;;;;;;;;5038725;28;20209;-68
2022/06/28 01:15:09;;;;;;;1.83;1.20;;;;;;;;;;5045302;28;20224;-68
2022/06/28 01:17:36;;;;;;;2.47;1.23;;;;;;;;;;5065273;28;20193;-68
2022/06/28 01:20:04;;;;;;;3.47;1.47;;;;;;;;;;5060432;28;20646;-68
2022/06/28 01:22:37;;;;;;;2.63;1.37;;;;;;;;;;5056647;28;20213;-68
2022/06/28 01:25:05;;;;;;;1.90;1.20;;;;;;;;;;5065421;28;20646;-67
2022/06/28 01:27:32;;;;;;;3.70;1.27;;;;;;;;;;5062129;28;20190;-68
2022/06/28 01:29:59;;;;;;;2.80;1.30;;;;;;;;;;5064500;28;20804;-67
2022/06/28 01:32:26;;;;;;;2.10;1.23;;;;;;;;;;5064961;28;20205;-68
2022/06/28 01:34:54;;;;;;;1.57;1.23;;;;;;;;;;5042824;28;20213;-68
2022/06/28 01:37:21;;;;;;;1.70;1.30;;;;;;;;;;5063348;28;20286;-68
2022/06/28 01:39:48;;;;;;;2.83;1.40;;;;;;;;;;5063281;28;20186;-67
2022/06/28 01:42:15;;;;;;;2.57;1.20;;;;;;;;;;5064960;28;20198;-67
2022/06/28 01:44:45;;;;;;;1.93;1.10;;;;;;;;;;5062158;28;20204;-67
2022/06/28 01:47:12;;;;;;;1.87;1.20;;;;;;;;;;5061651;28;20218;-67
2022/06/28 01:49:40;;;;;;;2.20;1.40;;;;;;;;;;5064660;28;20690;-68
2022/06/28 01:52:07;;;;;;;3.17;1.20;;;;;;;;;;5063847;28;20193;-67
2022/06/28 01:54:35;;;;;;;2.17;1.37;;;;;;;;;;5061640;28;20729;-68
2022/06/28 01:57:02;;;;;;;1.60;1.30;;;;;;;;;;5058949;28;20194;-68
2022/06/28 01:59:30;;;;;;;1.97;1.17;;;;;;;;;;5059276;28;20221;-68
2022/06/28 02:01:57;;;;;;;2.60;1.37;;;;;;;;;;5065587;28;20201;-68
2022/06/28 02:04:25;;;;;;;1.30;1.10;;;;;;;;;;5063663;28;20217;-68
2022/06/28 02:06:53;;;;;;;2.70;1.37;;;;;;;;;;5062130;28;20204;-68
2022/06/28 02:09:20;;;;;;;1.40;1.10;;;;;;;;;;5067778;28;20325;-68
2022/06/28 02:11:47;;;;;;;3.00;1.30;;;;;;;;;;5065411;28;20217;-68
2022/06/28 02:14:14;;;;;;;5.10;1.40;;;;;;;;;;5051236;28;20220;-68
2022/06/28 02:16:42;;;;;;;2.00;1.07;;;;;;;;;;5047547;28;20623;-68
2022/06/28 02:19:09;;;;;;;1.27;1.10;;;;;;;;;;5068662;28;20743;-67
2022/06/28 02:21:44;;;;;;;4.07;1.60;;;;;;;;;;5068284;28;20272;-68
2022/06/28 02:24:12;;;;;;;2.67;1.40;;;;;;;;;;5064389;28;20210;-67
2022/06/28 02:26:40;;;;;;;2.70;1.40;;;;;;;;;;5062534;28;20213;-67
2022/06/28 02:29:07;;;;;;;2.83;1.40;;;;;;;;;;5069070;28;20214;-68
2022/06/28 02:31:36;;;;;;;2.17;1.30;;;;;;;;;;5063983;28;20245;-68
2022/06/28 02:34:04;;;;;;;2.17;1.50;;;;;;;;;;5066837;28;20705;-68
2022/06/28 02:42:00;;;;;;;2.47;1.40;;;;;;;;;;5047197;28;20194;-67
2022/06/28 02:44:27;;;;;;;1.13;1.00;;;;;;;;;;5063963;28;20208;-68
2022/06/28 02:46:54;;;;;;;2.70;1.50;;;;;;;;;;5063864;28;20666;-68
2022/06/28 02:49:22;;;;;;;1.47;1.07;;;;;;;;;;5050259;28;20213;-67
2022/06/28 02:51:49;;;;;;;1.90;1.00;;;;;;;;;;5068105;28;20202;-67
2022/06/28 02:54:16;;;;;;;1.43;1.10;;;;;;;;;;5067669;28;20202;-67
2022/06/28 02:56:44;;;;;;;2.47;1.37;;;;;;;;;;5047444;28;20190;-68
2022/06/28 02:59:12;;;;;;;4.27;1.23;;;;;;;;;;5064457;28;20294;-68
2022/06/28 03:01:39;;;;;;;2.40;1.20;;;;;;;;;;5067612;28;20683;-68
2022/06/28 03:04:06;;;;;;;1.80;1.20;;;;;;;;;;5049847;28;20270;-68
2022/06/28 03:06:33;;;;;;;3.23;1.33;;;;;;;;;;5063131;28;20205;-67
2022/06/28 03:09:01;;;;;;;1.50;1.33;;;;;;;;;;5052770;28;20217;-68
2022/06/28 03:11:28;;;;;;;2.90;1.40;;;;;;;;;;5048753;28;20657;-67
2022/06/28 03:13:55;;;;;;;3.73;1.40;;;;;;;;;;5052093;28;20194;-67
2022/06/28 03:16:22;;;;;;;1.90;1.40;;;;;;;;;;5066613;28;20200;-67
2022/06/28 03:18:50;;;;;;;1.90;1.20;;;;;;;;;;5065292;28;20194;-68
2022/06/28 03:21:17;;;;;;;2.47;1.10;;;;;;;;;;5066402;28;20213;-67
2022/06/28 03:23:44;;;;;;;2.30;1.50;;;;;;;;;;5063363;28;20214;-67
2022/06/28 03:26:11;;;;;;;2.57;1.10;;;;;;;;;;5051092;28;20646;-67
2022/06/28 03:28:38;;;;;;;2.33;1.40;;;;;;;;;;5062986;28;20212;-68
2022/06/28 03:31:06;;;;;;;3.47;1.30;;;;;;;;;;5065442;28;20233;-67
2022/06/28 03:33:34;;;;;;;2.40;1.37;;;;;;;;;;5062325;28;20230;-67
2022/06/28 03:36:02;;;;;;;2.10;1.10;;;;;;;;;;5062749;28;20511;-67
2022/06/28 03:38:29;;;;;;;2.70;1.43;;;;;;;;;;5061734;28;20197;-68
2022/06/28 03:40:56;;;;;;;2.37;1.40;;;;;;;;;;5066562;28;20202;-68
2022/06/28 03:43:23;;;;;;;2.93;1.67;;;;;;;;;;5065953;28;20194;-68
2022/06/28 03:45:51;;;;;;;1.83;1.20;;;;;;;;;;5065992;28;20607;-68
2022/06/28 03:48:18;;;;;;;1.97;1.20;;;;;;;;;;5061328;28;20224;-68
2022/06/28 03:50:45;;;;;;;2.87;1.13;;;;;;;;;;5063201;28;20209;-67
2022/06/28 03:53:13;;;;;;;3.27;1.23;;;;;;;;;;5066172;28;20271;-68
2022/06/28 03:55:40;;;;;;;1.83;1.13;;;;;;;;;;5065540;28;20628;-65
2022/06/28 03:58:07;;;;;;;1.63;1.10;;;;;;;;;;5065956;28;20587;-65
2022/06/28 04:00:34;;;;;;;2.63;1.30;;;;;;;;;;5059132;28;20233;-65
2022/06/28 04:03:01;;;;;;;2.37;1.30;;;;;;;;;;5063015;28;20653;-65
2022/06/28 04:05:29;;;;;;;2.93;1.10;;;;;;;;;;5041417;28;20707;-65
2022/06/28 04:07:57;;;;;;;2.57;1.40;;;;;;;;;;5065823;28;20240;-65
2022/06/28 04:10:29;;;;;;;2.77;1.40;;;;;;;;;;5065051;28;20226;-68
2022/06/28 04:13:01;;;;;;;2.17;1.20;;;;;;;;;;5064400;28;20880;-68
2022/06/28 04:15:31;;;;;;;1.43;1.20;;;;;;;;;;5047356;28;20780;-68
2022/06/28 04:18:14;;;;;;;3.00;1.33;;;;;;;;;;5050010;28;20216;-68
2022/06/28 04:20:49;;;;;;;1.97;0.97;;;;;;;;;;5060867;28;20733;-65
2022/06/28 04:23:19;;;;;;;1.63;1.30;;;;;;;;;;5063154;28;20300;-65
2022/06/28 04:25:50;;;;;;;1.97;1.20;;;;;;;;;;5066200;28;20214;-68
2022/06/28 04:28:23;;;;;;;3.87;1.20;;;;;;;;;;5066277;28;20208;-68
2022/06/28 04:30:50;;;;;;;2.80;1.33;;;;;;;;;;5034856;28;20587;-69
2022/06/28 04:33:18;;;;;;;2.40;1.30;;;;;;;;;;5043036;28;20198;-69
2022/06/28 04:35:45;;;;;;;2.87;1.20;;;;;;;;;;5041297;28;20378;-65
2022/06/28 04:38:12;;;;;;;2.03;1.30;;;;;;;;;;5041211;28;20209;-65
2022/06/28 04:40:39;;;;;;;2.13;1.23;;;;;;;;;;5043026;28;20196;-67
2022/06/28 04:43:07;;;;;;;2.53;1.30;;;;;;;;;;5041762;28;20190;-68
2022/06/28 04:45:34;;;;;;;2.10;1.43;;;;;;;;;;5045925;28;20209;-68
2022/06/28 04:48:01;;;;;;;3.67;1.40;;;;;;;;;;5039245;28;20237;-67
2022/06/28 04:50:29;;;;;;;3.87;1.33;;;;;;;;;;5025015;28;20555;-68
2022/06/28 04:52:56;;;;;;;2.70;1.40;;;;;;;;;;5043573;28;20210;-68
2022/06/28 04:55:23;;;;;;;1.90;1.30;;;;;;;;;;5045683;28;20194;-66
2022/06/28 04:57:50;;;;;;;6.37;1.30;;;;;;;;;;5043436;28;20198;-66
2022/06/28 05:00:18;;;;;;;3.23;1.37;;;;;;;;;;5042175;28;20210;-65
2022/06/28 05:02:45;;;;;;;2.97;1.20;;;;;;;;;;5041547;28;20313;-65
2022/06/28 05:05:15;;;;;;;2.43;1.33;;;;;;;;;;5045725;28;20205;-65
2022/06/28 05:07:44;;;;;;;2.40;1.47;;;;;;;;;;5042471;28;20205;-66
2022/06/28 05:10:13;;;;;;;2.93;1.47;;;;;;;;;;5044918;28;20555;-67
2022/06/28 05:12:42;;;;;;;5.20;1.75;;;;;;;;;;5031760;28;20491;-68
2022/06/28 05:15:13;;;;;;;6.37;1.40;;;;;;;;;;5044531;28;20287;-65
2022/06/28 05:17:45;;;;;;;107.90;30.57;;;;;;;;;;5024789;28;20201;-68
2022/06/28 05:20:14;;;;;;;56.97;18.30;;;;;;;;;;5028440;28;20204;-66
2022/06/28 05:22:44;;;;;;;32.03;10.07;;;;;;;;;;5012997;28;20670;-66
2022/06/28 05:25:17;;;;;;;13.53;5.03;;;;;;;;;;5044819;28;20239;-66
2022/06/28 05:27:48;;;;;;;10.50;3.30;;;;;;;;;;5022869;28;20639;-65
2022/06/28 05:30:19;;;;;;;8.87;2.60;;;;;;;;;;5048328;28;20256;-69
2022/06/28 05:32:47;;;;;;;7.07;2.07;;;;;;;;;;5062344;28;20208;-67
2022/06/28 05:35:17;;;;;;;5.10;2.00;;;;;;;;;;5061529;28;20671;-67
2022/06/28 05:37:49;;;;;;;6.07;2.10;;;;;;;;;;5062919;28;20178;-66
2022/06/28 05:40:22;;;;;;;3.57;1.70;;;;;;;;;;5064377;28;20186;-67
2022/06/28 05:42:51;;;;;;;3.60;1.70;;;;;;;;;;5061068;28;20193;-66
2022/06/28 05:45:23;;;;;;;3.90;1.73;;;;;;;;;;5066147;28;20193;-66
2022/06/28 05:47:58;;;;;;;4.43;1.50;;;;;;;;;;5046963;28;20220;-66
2022/06/28 05:50:28;;;;;;;3.40;1.63;;;;;;;;;;5041551;28;20329;-67
2022/06/28 05:52:58;;;;;;;2.57;1.23;;;;;;;;;;5067955;28;20205;-65
2022/06/28 05:55:26;;;;;;;5.47;1.87;;;;;;;;;;5067879;28;20206;-65
2022/06/28 05:57:55;;;;;;;3.73;1.60;;;;;;;;;;5066966;28;20542;-65
2022/06/28 06:00:22;;;;;;;3.77;1.50;;;;;;;;;;5063175;28;20214;-68
2022/06/28 06:02:49;;;;;;;5.40;1.83;;;;;;;;;;5064181;28;20201;-69
2022/06/28 06:05:17;;;;;;;3.87;1.80;;;;;;;;;;5068277;28;20580;-66
2022/06/28 06:07:45;;;;;;;4.20;1.60;;;;;;;;;;5067906;28;20235;-66
2022/06/28 06:10:12;;;;;;;3.87;1.50;;;;;;;;;;5068398;28;20229;-65
2022/06/28 06:12:39;;;;;;;4.13;1.43;;;;;;;;;;5043720;28;20217;-65
2022/06/28 06:15:07;;;;;;;3.43;1.73;;;;;;;;;;5065731;28;20208;-66
2022/06/28 06:17:34;;;;;;;8.00;1.60;;;;;;;;;;5050629;28;20205;-66
2022/06/28 06:20:07;;;;;;;5.30;1.60;;;;;;;;;;5062690;28;20195;-68
2022/06/28 06:22:34;;;;;;;5.57;1.80;;;;;;;;;;5040690;28;20399;-70
2022/06/28 06:25:01;;;;;;;6.67;1.93;;;;;;;;;;5061728;28;20304;-67
2022/06/28 06:27:36;;;;;;;7.30;2.60;;;;;;;;;;5064391;28;20192;-65
2022/06/28 06:30:05;;;;;;;5.07;1.77;;;;;;;;;;5067862;28;20835;-66
2022/06/28 06:32:33;;;;;;;4.47;2.00;;;;;;;;;;5060230;28;20285;-63
2022/06/28 06:35:00;;;;;;;4.50;1.73;;;;;;;;;;5062858;28;20202;-63
2022/06/28 06:37:28;;;;;;;6.73;1.70;;;;;;;;;;5064794;28;20225;-65
2022/06/28 06:39:55;;;;;;;7.40;1.90;;;;;;;;;;5066155;28;20186;-65
2022/06/28 06:42:22;;;;;;;6.20;1.73;;;;;;;;;;5066760;28;20185;-66
2022/06/28 06:44:49;;;;;;;7.43;2.07;;;;;;;;;;5065732;28;20606;-67
2022/06/28 06:47:16;;;;;;;7.67;1.93;;;;;;;;;;5063604;28;20210;-65
2022/06/28 06:49:44;;;;;;;3.50;1.50;;;;;;;;;;5066137;28;20189;-65
2022/06/28 06:52:11;;;;;;;4.43;1.90;;;;;;;;;;5067471;28;20330;-69
2022/06/28 06:54:38;;;;;;;4.47;1.50;;;;;;;;;;5047051;28;20201;-69
2022/06/28 06:57:05;;;;;;;4.83;1.73;;;;;;;;;;5065364;28;20197;-63
2022/06/28 06:59:33;;;;;;;4.43;1.57;;;;;;;;;;5063795;28;20210;-63
2022/06/28 07:02:00;;;;;;;8.27;2.27;;;;;;;;;;5067268;28;20186;-66
2022/06/28 07:04:27;;;;;;;4.83;1.80;;;;;;;;;;5065038;28;20215;-66
2022/06/28 07:07:00;;;;;;;5.87;2.10;;;;;;;;;;5047955;28;20262;-66
2022/06/28 07:09:28;;;;;;;4.33;1.60;;;;;;;;;;5066808;28;20581;-66
2022/06/28 07:11:55;;;;;;;6.37;1.93;;;;;;;;;;5064287;28;20234;-66
2022/06/28 07:14:22;;;;;;;10.57;4.10;;;;;;;;;;5060200;28;20252;-67
2022/06/28 07:16:49;;;;;;;10.80;3.27;;;;;;;;;;5064467;28;20213;-66
2022/06/28 07:19:17;;;;;;;9.57;2.93;;;;;;;;;;5069504;28;20197;-66
2022/06/28 07:21:44;;;;;;;7.73;2.67;;;;;;;;;;5065704;28;20178;-65
2022/06/28 07:24:13;;;;;;;9.33;2.57;;;;;;;;;;5057630;28;20220;-65
2022/06/28 07:26:40;;;;;;;7.40;2.73;;;;;;;;;;5064382;28;20612;-65
2022/06/28 07:29:07;;;;;;;5.23;2.00;;;;;;;;;;5068185;28;20197;-65
2022/06/28 07:31:40;;;;;;;4.90;1.97;;;;;;;;;;5064112;28;20233;-66
2022/06/28 07:34:07;;;;;;;4.03;1.83;;;;;;;;;;5063891;28;20221;-67
2022/06/28 07:36:35;;;;;;;5.00;2.30;;;;;;;;;;5060578;28;20220;-67
2022/06/28 07:39:02;;;;;;;5.63;1.80;;;;;;;;;;5066293;28;20205;-68
2022/06/28 07:41:30;;;;;;;3.73;1.67;;;;;;;;;;5069395;28;20620;-69
2022/06/28 07:43:57;;;;;;;4.20;1.80;;;;;;;;;;5068237;28;20193;-66
2022/06/28 07:46:25;;;;;;;2.43;1.10;;;;;;;;;;5051124;28;20205;-65
2022/06/28 07:48:52;;;;;;;3.53;1.47;;;;;;;;;;5060769;28;20213;-65
2022/06/28 07:54:06;;;;;;;4.63;1.10;;;;;;;;;;5063971;28;20194;-67
2022/06/28 07:56:34;;;;;;;3.60;1.60;;;;;;;;;;5063235;28;20201;-66
2022/06/28 07:59:01;;;;;;;2.97;1.27;;;;;;;;;;5059410;28;20225;-67
2022/06/28 08:01:28;;;;;;;4.17;1.40;;;;;;;;;;5063973;28;20197;-67
2022/06/28 08:03:55;;;;;;;3.70;1.17;;;;;;;;;;5066773;28;20209;-65
2022/06/28 08:06:23;;;;;;;2.57;1.23;;;;;;;;;;5045750;28;20208;-66
2022/06/28 08:08:50;;;;;;;4.50;1.13;;;;;;;;;;5063532;28;20576;-68
2022/06/28 08:11:17;;;;;;;4.53;1.20;;;;;;;;;;5043583;28;20710;-65
2022/06/28 08:13:47;;;;;;;3.17;1.00;;;;;;;;;;5064118;28;20189;-68
2022/06/28 08:16:15;;;;;;;2.37;1.00;;;;;;;;;;5063011;28;20595;-66
2022/06/28 08:18:43;;;;;;;4.27;1.20;;;;;;;;;;5064950;28;20194;-67
2022/06/28 08:21:14;;;;;;;3.30;1.13;;;;;;;;;;5063818;28;20218;-68
2022/06/28 08:23:41;;;;;;;3.30;1.20;;;;;;;;;;5061637;28;20221;-68
2022/06/28 08:26:11;;;;;;;3.23;1.33;;;;;;;;;;5062273;28;20209;-67
2022/06/28 08:28:42;;;;;;;3.40;0.93;;;;;;;;;;5060216;28;20194;-68
2022/06/28 08:31:13;;;;;;;2.77;0.93;;;;;;;;;;5063821;28;20234;-68
2022/06/28 08:33:43;;;;;;;4.70;1.10;;;;;;;;;;5048777;28;20738;-69
2022/06/28 08:36:16;;;;;;;3.77;1.00;;;;;;;;;;5062638;28;20736;-67
2022/06/28 08:38:44;;;;;;;3.43;1.20;;;;;;;;;;5048306;28;20198;-69
2022/06/28 08:41:15;;;;;;;3.33;1.20;;;;;;;;;;5064064;28;20205;-67
2022/06/28 08:43:45;;;;;;;1.33;0.90;;;;;;;;;;5064965;28;20312;-68
2022/06/28 08:46:13;;;;;;;3.70;1.00;;;;;;;;;;5049972;28;20193;-67
2022/06/28 08:48:44;;;;;;;1.83;1.00;;;;;;;;;;5045373;28;20214;-66
2022/06/28 08:51:13;;;;;;;3.37;1.00;;;;;;;;;;5025859;28;20225;-68
2022/06/28 08:53:47;;;;;;;2.60;1.10;;;;;;;;;;5035026;28;20206;-68
2022/06/28 08:56:22;;;;;;;1.77;0.80;;;;;;;;;;5063485;28;20229;-67
2022/06/28 08:58:51;;;;;;;4.53;0.90;;;;;;;;;;5049610;28;20283;-68
2022/06/28 09:01:21;;;;;;;4.87;1.03;;;;;;;;;;5042165;28;20212;-66
2022/06/28 09:03:54;;;;;;;1.53;0.83;;;;;;;;;;5055336;28;20243;-68
2022/06/28 09:06:23;;;;;;;2.03;0.73;;;;;;;;;;5046484;28;20205;-68
2022/06/28 09:08:52;;;;;;;2.00;0.90;;;;;;;;;;5063356;28;20323;-66
2022/06/28 09:11:22;;;;;;;2.23;0.70;;;;;;;;;;5040424;28;20230;-69
2022/06/28 09:13:54;;;;;;;2.93;1.10;;;;;;;;;;5059196;28;20201;-69
2022/06/28 09:16:23;;;;;;;1.43;0.80;;;;;;;;;;5063495;28;20196;-66
2022/06/28 09:18:50;;;;;;;1.63;0.80;;;;;;;;;;5048586;28;20258;-66
2022/06/28 09:21:19;;;;;;;1.47;0.67;;;;;;;;;;5069562;28;20204;-67
2022/06/28 09:23:53;;;;;;;1.17;0.83;;;;;;;;;;5060270;28;20225;-67
2022/06/28 09:26:30;;;;;;;1.57;0.80;;;;;;;;;;5048407;28;20210;-68
2022/06/28 09:29:03;;;;;;;4.07;0.90;;;;;;;;;;5068224;28;20249;-67
2022/06/28 09:31:32;;;;;;;1.97;1.00;;;;;;;;;;5068857;28;20282;-69
2022/06/28 09:34:02;;;;;;;1.73;0.73;;;;;;;;;;5065992;28;20209;-70
2022/06/28 09:36:30;;;;;;;2.23;0.70;;;;;;;;;;5057567;28;20416;-69
2022/06/28 09:39:01;;;;;;;3.43;1.00;;;;;;;;;;5036042;28;20201;-69
2022/06/28 09:41:29;;;;;;;3.50;0.93;;;;;;;;;;5063530;28;20406;-69
2022/06/28 09:44:00;;;;;;;3.47;1.13;;;;;;;;;;5052392;28;20197;-69
2022/06/28 09:46:29;;;;;;;1.77;0.80;;;;;;;;;;5066044;28;20212;-68
2022/06/28 09:48:57;;;;;;;3.40;0.73;;;;;;;;;;5052613;28;20257;-70
2022/06/28 09:51:26;;;;;;;2.40;1.03;;;;;;;;;;5046608;28;20209;-67
2022/06/28 09:53:56;;;;;;;2.10;0.83;;;;;;;;;;5063506;28;20252;-66
2022/06/28 09:56:47;;;;;;;4.00;0.67;;;;;;;;;;5048071;28;20292;-67
2022/06/28 09:59:14;;;;;;;2.27;0.73;;;;;;;;;;5061991;28;20229;-68
2022/06/28 10:01:42;;;;;;;2.60;0.90;;;;;;;;;;5068967;28;20224;-69
2022/06/28 10:04:09;;;;;;;2.23;0.80;;;;;;;;;;5066525;28;20215;-70
2022/06/28 10:06:37;;;;;;;2.40;0.97;;;;;;;;;;5066543;28;20186;-67
2022/06/28 10:09:06;;;;;;;1.83;1.00;;;;;;;;;;5067203;28;20205;-67
2022/06/28 10:15:01;;;;;;;1.17;0.73;;;;;;;;;;5065186;28;20296;-67
2022/06/28 10:17:28;;;;;;;2.27;1.00;;;;;;;;;;5068574;28;20201;-67
2022/06/28 10:19:57;;;;;;;2.37;1.10;;;;;;;;;;5063400;28;20189;-66
2022/06/28 10:22:24;;;;;;;2.70;1.00;;;;;;;;;;5062828;28;20845;-68
2022/06/28 10:24:53;;;;;;;3.80;1.10;;;;;;;;;;5054667;28;20209;-68
2022/06/28 10:27:26;;;;;;;2.03;1.10;;;;;;;;;;5066656;28;20213;-68
2022/06/28 10:30:08;;;;;;;2.30;0.97;;;;;;;;;;5064216;28;20194;-68
2022/06/28 10:32:48;;;;;;;2.10;1.00;;;;;;;;;;5061941;28;20206;-68
2022/06/28 10:35:34;;;;;;;2.97;1.07;;;;;;;;;;5044711;28;20757;-68
2022/06/28 10:38:08;;;;;;;1.93;0.97;;;;;;;;;;5064678;28;20202;-68
2022/06/28 10:40:38;;;;;;;2.23;0.83;;;;;;;;;;5063242;28;20194;-68
2022/06/28 10:43:12;;;;;;;3.20;1.23;;;;;;;;;;5065433;28;20221;-68
2022/06/28 10:46:09;;;;;;;2.47;1.00;;;;;;;;;;5067628;28;20491;-66
2022/06/28 10:49:06;;;;;;;2.50;0.90;;;;;;;;;;5044326;28;20225;-65
2022/06/28 10:51:34;;;;;;;2.77;0.97;;;;;;;;;;5048452;28;20232;-67
2022/06/28 10:54:04;;;;;;;2.10;0.90;;;;;;;;;;5048139;28;20193;-67
2022/06/28 10:56:36;;;;;;;2.13;0.93;;;;;;;;;;5063352;28;20264;-66
2022/06/28 10:59:07;;;;;;;2.40;1.07;;;;;;;;;;5062077;28;20263;-65
2022/06/28 11:01:59;;;;;;;4.00;1.00;;;;;;;;;;5033178;28;20244;-65
2022/06/28 11:04:30;;;;;;;3.43;1.20;;;;;;;;;;5064739;28;20212;-66
2022/06/28 11:07:23;;;;;;;1.43;0.90;;;;;;;;;;5065160;28;20194;-68
2022/06/28 11:09:54;;;;;;;3.27;1.27;;;;;;;;;;5068264;28;20202;-68
2022/06/28 11:12:38;;;;;;;5.33;0.90;;;;;;;;;;5055262;28;20241;-67
2022/06/28 11:15:36;;;;;;;3.00;1.00;;;;;;;;;;5057322;28;20711;-68
2022/06/28 11:18:23;;;;;;;1.73;0.80;;;;;;;;;;5049138;28;20631;-69
2022/06/28 11:21:02;;;;;;;2.40;0.80;;;;;;;;;;5066453;28;20196;-65
2022/06/28 11:23:33;;;;;;;3.60;1.07;;;;;;;;;;5057319;28;20212;-66
2022/06/28 11:29:06;;;;;;;1.57;1.20;;;;;;;;;;5065628;28;20194;-66
2022/06/28 11:31:51;;;;;;;2.70;1.33;;;;;;;;;;5064253;28;20264;-66
2022/06/28 11:34:25;;;;;;;2.50;1.20;;;;;;;;;;5063085;28;20193;-66
2022/06/28 11:37:08;;;;;;;3.30;1.17;;;;;;;;;;5049507;28;20646;-63
2022/06/28 11:39:38;;;;;;;3.53;1.10;;;;;;;;;;5063380;28;20205;-63
2022/06/28 11:42:09;;;;;;;1.80;1.00;;;;;;;;;;5063897;28;20232;-62
2022/06/28 11:44:38;;;;;;;2.57;1.07;;;;;;;;;;5059366;28;20708;-61
2022/06/28 11:47:09;;;;;;;3.10;1.17;;;;;;;;;;5062968;28;20210;-62
2022/06/28 11:49:39;;;;;;;2.50;1.10;;;;;;;;;;5066455;28;20185;-62
2022/06/28 11:52:08;;;;;;;1.93;1.10;;;;;;;;;;5066249;28;20216;-61
2022/06/28 11:54:40;;;;;;;4.17;1.10;;;;;;;;;;5049106;28;20559;-69
2022/06/28 11:57:17;;;;;;;3.63;1.30;;;;;;;;;;5043050;28;20201;-69
2022/06/28 12:00:02;;;;;;;2.47;1.30;;;;;;;;;;5060389;28;20224;-70
2022/06/28 12:02:46;;;;;;;3.13;1.10;;;;;;;;;;5046648;28;20198;-69
2022/06/28 12:05:28;;;;;;;2.17;0.90;;;;;;;;;;5052927;28;20296;-68
2022/06/28 12:08:02;;;;;;;2.43;0.93;;;;;;;;;;5066390;28;20626;-67
2022/06/28 12:10:33;;;;;;;2.17;0.80;;;;;;;;;;5064646;28;20189;-67
2022/06/28 12:13:09;;;;;;;4.50;1.13;;;;;;;;;;5066487;28;20206;-67
2022/06/28 12:15:37;;;;;;;2.87;0.90;;;;;;;;;;5064297;28;20186;-68
2022/06/28 12:18:06;;;;;;;2.33;1.07;;;;;;;;;;5065945;28;20190;-68
2022/06/28 12:20:34;;;;;;;5.10;1.27;;;;;;;;;;5063717;28;20182;-70
2022/06/28 12:23:03;;;;;;;1.70;0.97;;;;;;;;;;5061661;28;20220;-68
2022/06/28 12:25:32;;;;;;;6.57;1.00;;;;;;;;;;5049345;28;20189;-67
2022/06/28 12:27:59;;;;;;;2.73;0.90;;;;;;;;;;5065146;28;20283;-69
2022/06/28 12:30:26;;;;;;;2.17;1.10;;;;;;;;;;5056864;28;20206;-69
2022/06/28 12:32:58;;;;;;;7.10;1.13;;;;;;;;;;5066062;28;20209;-70
2022/06/28 12:35:26;;;;;;;3.10;1.30;;;;;;;;;;5055325;28;20209;-72
2022/06/28 12:37:54;;;;;;;1.77;0.90;;;;;;;;;;5053208;28;20327;-70
2022/06/28 12:40:21;;;;;;;4.87;0.90;;;;;;;;;;5070122;28;20194;-70
2022/06/28 12:42:49;;;;;;;1.80;1.07;;;;;;;;;;5064458;28;20259;-69
2022/06/28 12:45:16;;;;;;;2.37;1.10;;;;;;;;;;5063598;28;20218;-69
2022/06/28 12:47:43;;;;;;;2.50;1.07;;;;;;;;;;5060986;28;20213;-69
2022/06/28 12:50:13;;;;;;;1.97;1.23;;;;;;;;;;5065124;28;20253;-68
2022/06/28 12:52:41;;;;;;;1.90;1.13;;;;;;;;;;5059196;28;20272;-68
2022/06/28 12:55:12;;;;;;;5.10;1.17;;;;;;;;;;5064426;28;20194;-67
2022/06/28 12:57:40;;;;;;;2.30;0.93;;;;;;;;;;5064825;28;20631;-68
2022/06/28 13:00:08;;;;;;;3.93;1.10;;;;;;;;;;5061766;28;20212;-68
2022/06/28 13:02:35;;;;;;;4.53;1.13;;;;;;;;;;5056231;28;20503;-70
2022/06/28 13:05:05;;;;;;;6.27;1.17;;;;;;;;;;5064077;28;20200;-69
2022/06/28 13:07:34;;;;;;;2.30;0.90;;;;;;;;;;5062937;28;20186;-68
2022/06/28 13:10:06;;;;;;;2.03;1.10;;;;;;;;;;5067279;28;20527;-68
2022/06/28 13:12:39;;;;;;;2.17;1.10;;;;;;;;;;5059286;28;20222;-68
2022/06/28 13:15:07;;;;;;;1.97;1.00;;;;;;;;;;5066309;28;20283;-66
2022/06/28 13:17:39;;;;;;;2.90;1.00;;;;;;;;;;5064453;28;20631;-66
2022/06/28 13:20:13;;;;;;;1.80;0.80;;;;;;;;;;5061939;28;20295;-69
2022/06/28 13:22:57;;;;;;;2.60;1.07;;;;;;;;;;5041885;28;20198;-68
2022/06/28 13:25:25;;;;;;;2.47;1.00;;;;;;;;;;5064385;28;20217;-68
2022/06/28 13:27:56;;;;;;;1.73;0.87;;;;;;;;;;5063908;28;20735;-69
2022/06/28 13:30:26;;;;;;;2.47;0.90;;;;;;;;;;5063927;28;20206;-68
2022/06/28 13:32:53;;;;;;;2.30;1.00;;;;;;;;;;5057870;28;20271;-67
2022/06/28 13:35:26;;;;;;;1.63;1.00;;;;;;;;;;5061829;28;20675;-67
2022/06/28 13:38:00;;;;;;;5.60;1.00;;;;;;;;;;5057565;28;20193;-64
2022/06/28 13:40:33;;;;;;;1.60;0.80;;;;;;;;;;5062237;28;20207;-64
2022/06/28 13:43:32;;;;;;;2.30;1.07;;;;;;;;;;5065273;28;20208;-64
2022/06/28 13:45:53;;;;;;;2.70;1.20;;;;;;;;;;5045050;28;20199;-66
2022/06/28 13:48:23;;;;;;;3.67;1.20;;;;;;;;;;5051491;28;20788;-67
2022/06/28 13:50:56;;;;;;;2.03;1.00;;;;;;;;;;5063886;28;20217;-67
2022/06/28 13:53:26;;;;;;;2.93;1.20;;;;;;;;;;5040735;28;20247;-66
2022/06/28 13:55:57;;;;;;;4.07;1.17;;;;;;;;;;5063461;28;20273;-63
2022/06/28 13:58:24;;;;;;;2.70;1.00;;;;;;;;;;5063635;28;20194;-63
2022/06/28 14:00:57;;;;;;;2.20;1.10;;;;;;;;;;5053245;28;20201;-63
2022/06/28 14:03:37;;;;;;;2.07;1.07;;;;;;;;;;5063796;28;20197;-63
2022/06/28 14:06:07;;;;;;;4.13;1.00;;;;;;;;;;5069058;28;20259;-69
2022/06/28 14:08:39;;;;;;;4.37;1.20;;;;;;;;;;5065564;28;20713;-72
2022/06/28 14:11:07;;;;;;;1.97;1.03;;;;;;;;;;5058516;28;20296;-67
2022/06/28 14:13:41;;;;;;;2.73;1.17;;;;;;;;;;5067785;28;20225;-67
2022/06/28 14:16:13;;;;;;;3.23;1.37;;;;;;;;;;5032649;28;20209;-69
2022/06/28 14:18:41;;;;;;;1.87;1.10;;;;;;;;;;5062181;28;20190;-68
2022/06/28 14:21:13;;;;;;;2.40;1.10;;;;;;;;;;5065762;28;20201;-71
2022/06/28 14:23:47;;;;;;;1.77;1.00;;;;;;;;;;5063914;28;20217;-69
2022/06/28 14:26:21;;;;;;;2.60;1.43;;;;;;;;;;5046177;28;20272;-70
2022/06/28 14:28:56;;;;;;;1.80;1.00;;;;;;;;;;5061339;28;20193;-68
2022/06/28 14:31:27;;;;;;;2.17;1.10;;;;;;;;;;5048593;28;20333;-69
2022/06/28 14:34:15;;;;;;;2.77;1.10;;;;;;;;;;5052418;28;20193;-68
2022/06/28 14:36:49;;;;;;;1.90;1.03;;;;;;;;;;5058011;28;20209;-69
2022/06/28 14:39:20;;;;;;;1.57;0.97;;;;;;;;;;5068138;28;20197;-66
2022/06/28 14:41:51;;;;;;;3.17;1.43;;;;;;;;;;5066415;28;20198;-69
2022/06/28 14:44:20;;;;;;;7.03;1.10;;;;;;;;;;5049960;28;20280;-67
2022/06/28 14:46:52;;;;;;;2.17;1.00;;;;;;;;;;5057525;28;20780;-71
2022/06/28 14:49:23;;;;;;;1.67;0.87;;;;;;;;;;5064867;28;20205;-73
2022/06/28 14:51:54;;;;;;;1.47;0.90;;;;;;;;;;5046640;28;20223;-72
2022/06/28 14:54:24;;;;;;;4.47;1.20;;;;;;;;;;5044666;28;20249;-69
2022/06/28 14:56:54;;;;;;;2.70;1.00;;;;;;;;;;5066515;28;20185;-70
2022/06/28 14:59:21;;;;;;;4.07;1.10;;;;;;;;;;5064244;28;20213;-71
2022/06/28 15:01:48;;;;;;;2.30;1.17;;;;;;;;;;5066746;28;20189;-69
2022/06/28 15:04:16;;;;;;;1.30;0.87;;;;;;;;;;5066899;28;20821;-70
2022/06/28 15:06:44;;;;;;;2.30;1.30;;;;;;;;;;5062973;28;20198;-70
2022/06/28 15:09:14;;;;;;;2.17;1.00;;;;;;;;;;5066525;28;20200;-66
2022/06/28 15:11:43;;;;;;;1.53;0.87;;;;;;;;;;5064316;28;20218;-69
2022/06/28 15:14:13;;;;;;;2.13;1.30;;;;;;;;;;5065410;28;20321;-70
2022/06/28 15:16:45;;;;;;;1.77;1.13;;;;;;;;;;5064390;28;20190;-69